sensor_id;sensor_type;location;lat;lon;timestamp;temperature;humidity
17815;DHT22;9031;50.974;11.330;2022-08-04T00:01:02;20.10;99.90
17815;DHT22;9031;50.974;11.330;2022-08-04T00:03:32;20.10;99.90
17815;DHT22;9031;50.974;11.330;2022-08-04T00:08:49;20.30;99.90
17815;DHT22;9031;50.974;11.330;2022-08-04T00:11:19;20.50;99.90
17815;DHT22;9031;50.974;11.330;2022-08-04T00:13:52;20.50;99.90
17815;DHT22;9031;50.974;11.330;2022-08-04T00:16:21;20.40;99.90
17815;DHT22;9031;50.974;11.330;2022-08-04T00:18:54;20.50;99.90
17815;DHT22;9031;50.974;11.330;2022-08-04T00:21:23;20.50;99.90
17815;DHT22;9031;50.974;11.330;2022-08-04T00:23:51;20.60;99.90
17815;DHT22;9031;50.974;11.330;2022-08-04T00:26:18;20.50;99.90
17815;DHT22;9031;50.974;11.330;2022-08-04T00:28:46;20.50;99.90
17815;DHT22;9031;50.974;11.330;2022-08-04T00:31:14;20.40;99.90
17815;DHT22;9031;50.974;11.330;2022-08-04T00:33:45;20.30;99.90
17815;DHT22;9031;50.974;11.330;2022-08-04T00:36:12;20.40;99.90
17815;DHT22;9031;50.974;11.330;2022-08-04T00:38:41;20.40;99.90
17815;DHT22;9031;50.974;11.330;2022-08-04T00:41:17;20.40;99.90
17815;DHT22;9031;50.974;11.330;2022-08-04T00:44:04;20.30;99.90
17815;DHT22;9031;50.974;11.330;2022-08-04T00:49:32;20.10;99.90
17815;DHT22;9031;50.974;11.330;2022-08-04T00:52:27;20.20;99.90
17815;DHT22;9031;50.974;11.330;2022-08-04T01:01:05;20.00;99.90
17815;DHT22;9031;50.974;11.330;2022-08-04T01:04:01;19.80;99.90
17815;DHT22;9031;50.974;11.330;2022-08-04T01:09:43;19.80;99.90
17815;DHT22;9031;50.974;11.330;2022-08-04T01:16:01;19.80;99.90
17815;DHT22;9031;50.974;11.330;2022-08-04T01:18:35;19.60;99.90
17815;DHT22;9031;50.974;11.330;2022-08-04T01:24:29;19.10;99.90
17815;DHT22;9031;50.974;11.330;2022-08-04T01:27:10;19.00;99.90
17815;DHT22;9031;50.974;11.330;2022-08-04T01:29:49;19.00;99.90
17815;DHT22;9031;50.974;11.330;2022-08-04T01:32:33;19.10;99.90
17815;DHT22;9031;50.974;11.330;2022-08-04T01:35:01;19.10;99.90
17815;DHT22;9031;50.974;11.330;2022-08-04T01:37:43;19.20;99.90
17815;DHT22;9031;50.974;11.330;2022-08-04T01:40:13;19.20;99.90
17815;DHT22;9031;50.974;11.330;2022-08-04T01:42:40;19.10;99.90
17815;DHT22;9031;50.974;11.330;2022-08-04T01:45:09;19.20;99.90
17815;DHT22;9031;50.974;11.330;2022-08-04T01:47:39;19.10;99.90
17815;DHT22;9031;50.974;11.330;2022-08-04T01:50:11;19.10;99.90
17815;DHT22;9031;50.974;11.330;2022-08-04T01:52:40;19.00;99.90
17815;DHT22;9031;50.974;11.330;2022-08-04T01:55:09;19.00;99.90
17815;DHT22;9031;50.974;11.330;2022-08-04T01:57:40;19.10;99.90
17815;DHT22;9031;50.974;11.330;2022-08-04T02:00:06;19.30;99.90
17815;DHT22;9031;50.974;11.330;2022-08-04T02:02:32;19.30;99.90
17815;DHT22;9031;50.974;11.330;2022-08-04T02:04:58;19.30;99.90
17815;DHT22;9031;50.974;11.330;2022-08-04T02:07:49;19.30;99.90
17815;DHT22;9031;50.974;11.330;2022-08-04T02:13:26;19.30;99.90
17815;DHT22;9031;50.974;11.330;2022-08-04T02:16:04;19.30;99.90
17815;DHT22;9031;50.974;11.330;2022-08-04T02:18:32;19.30;99.90
17815;DHT22;9031;50.974;11.330;2022-08-04T02:21:02;19.30;99.90
17815;DHT22;9031;50.974;11.330;2022-08-04T02:23:35;19.30;99.90
17815;DHT22;9031;50.974;11.330;2022-08-04T02:26:11;19.30;99.90
17815;DHT22;9031;50.974;11.330;2022-08-04T02:31:30;19.20;99.90
17815;DHT22;9031;50.974;11.330;2022-08-04T02:34:27;19.20;99.90
17815;DHT22;9031;50.974;11.330;2022-08-04T02:36:53;19.20;99.90
17815;DHT22;9031;50.974;11.330;2022-08-04T02:39:21;18.90;99.90
17815;DHT22;9031;50.974;11.330;2022-08-04T02:41:48;18.70;99.90
17815;DHT22;9031;50.974;11.330;2022-08-04T02:44:19;18.50;99.90
17815;DHT22;9031;50.974;11.330;2022-08-04T02:46:47;18.40;99.90
17815;DHT22;9031;50.974;11.330;2022-08-04T02:49:16;18.50;99.90
17815;DHT22;9031;50.974;11.330;2022-08-04T02:51:45;18.30;99.90
17815;DHT22;9031;50.974;11.330;2022-08-04T02:54:15;18.40;99.90
17815;DHT22;9031;50.974;11.330;2022-08-04T02:56:44;18.60;99.90
17815;DHT22;9031;50.974;11.330;2022-08-04T02:59:12;18.70;99.90
17815;DHT22;9031;50.974;11.330;2022-08-04T03:01:38;18.90;99.90
17815;DHT22;9031;50.974;11.330;2022-08-04T03:12:25;19.00;99.90
17815;DHT22;9031;50.974;11.330;2022-08-04T03:18:32;18.80;99.90
17815;DHT22;9031;50.974;11.330;2022-08-04T03:29:46;18.20;99.90
17815;DHT22;9031;50.974;11.330;2022-08-04T03:35:35;18.10;99.90
17815;DHT22;9031;50.974;11.330;2022-08-04T03:41:26;17.90;99.90
17815;DHT22;9031;50.974;11.330;2022-08-04T03:44:26;17.90;99.90
17815;DHT22;9031;50.974;11.330;2022-08-04T03:55:45;18.00;99.90
17815;DHT22;9031;50.974;11.330;2022-08-04T04:03:50;17.90;99.90
17815;DHT22;9031;50.974;11.330;2022-08-04T04:09:15;17.70;99.90
17815;DHT22;9031;50.974;11.330;2022-08-04T04:21:28;17.60;99.90
17815;DHT22;9031;50.974;11.330;2022-08-04T04:30:59;17.80;99.90
17815;DHT22;9031;50.974;11.330;2022-08-04T04:35:47;18.20;99.90
17815;DHT22;9031;50.974;11.330;2022-08-04T04:38:21;18.30;99.90
17815;DHT22;9031;50.974;11.330;2022-08-04T04:41:45;18.40;99.90
17815;DHT22;9031;50.974;11.330;2022-08-04T04:45:02;18.70;99.90
17815;DHT22;9031;50.974;11.330;2022-08-04T04:47:32;18.80;99.90
17815;DHT22;9031;50.974;11.330;2022-08-04T04:50:14;18.60;99.90
17815;DHT22;9031;50.974;11.330;2022-08-04T04:52:48;18.50;99.90
17815;DHT22;9031;50.974;11.330;2022-08-04T04:55:30;18.40;99.90
17815;DHT22;9031;50.974;11.330;2022-08-04T04:57:58;18.50;99.90
17815;DHT22;9031;50.974;11.330;2022-08-04T05:06:09;18.90;99.90
17815;DHT22;9031;50.974;11.330;2022-08-04T05:14:35;19.70;99.90
17815;DHT22;9031;50.974;11.330;2022-08-04T05:17:29;19.80;99.90
17815;DHT22;9031;50.974;11.330;2022-08-04T05:20:07;19.90;99.90
17815;DHT22;9031;50.974;11.330;2022-08-04T05:22:47;20.10;99.90
17815;DHT22;9031;50.974;11.330;2022-08-04T05:25:42;20.20;99.90
17815;DHT22;9031;50.974;11.330;2022-08-04T05:28:41;20.20;99.90
17815;DHT22;9031;50.974;11.330;2022-08-04T05:31:20;20.40;99.90
17815;DHT22;9031;50.974;11.330;2022-08-04T05:33:56;20.60;99.90
17815;DHT22;9031;50.974;11.330;2022-08-04T05:36:29;20.80;99.90
17815;DHT22;9031;50.974;11.330;2022-08-04T05:38:58;20.90;99.90
17815;DHT22;9031;50.974;11.330;2022-08-04T05:41:26;21.10;99.90
17815;DHT22;9031;50.974;11.330;2022-08-04T05:43:52;21.30;99.90
17815;DHT22;9031;50.974;11.330;2022-08-04T05:46:19;21.40;99.90
17815;DHT22;9031;50.974;11.330;2022-08-04T05:48:45;21.40;99.90
17815;DHT22;9031;50.974;11.330;2022-08-04T05:51:13;21.50;99.90
17815;DHT22;9031;50.974;11.330;2022-08-04T05:53:40;21.50;99.90
17815;DHT22;9031;50.974;11.330;2022-08-04T05:56:10;21.60;99.90
17815;DHT22;9031;50.974;11.330;2022-08-04T05:58:36;21.80;99.90
17815;DHT22;9031;50.974;11.330;2022-08-04T06:01:03;22.10;99.90
17815;DHT22;9031;50.974;11.330;2022-08-04T06:03:30;22.20;99.90
17815;DHT22;9031;50.974;11.330;2022-08-04T06:05:58;22.40;99.90
17815;DHT22;9031;50.974;11.330;2022-08-04T06:08:24;22.60;99.90
17815;DHT22;9031;50.974;11.330;2022-08-04T06:10:50;22.70;99.90
17815;DHT22;9031;50.974;11.330;2022-08-04T06:13:20;23.00;99.90
17815;DHT22;9031;50.974;11.330;2022-08-04T06:15:51;23.20;99.90
17815;DHT22;9031;50.974;11.330;2022-08-04T06:18:18;23.50;99.90
17815;DHT22;9031;50.974;11.330;2022-08-04T06:20:45;23.70;99.90
17815;DHT22;9031;50.974;11.330;2022-08-04T06:23:15;23.90;99.90
17815;DHT22;9031;50.974;11.330;2022-08-04T06:25:45;24.10;99.90
17815;DHT22;9031;50.974;11.330;2022-08-04T06:28:12;24.30;99.90
17815;DHT22;9031;50.974;11.330;2022-08-04T06:30:39;24.40;99.90
17815;DHT22;9031;50.974;11.330;2022-08-04T06:33:07;24.60;99.90
17815;DHT22;9031;50.974;11.330;2022-08-04T06:35:51;24.80;99.90
17815;DHT22;9031;50.974;11.330;2022-08-04T06:38:19;25.00;99.90
17815;DHT22;9031;50.974;11.330;2022-08-04T06:40:45;25.20;99.90
17815;DHT22;9031;50.974;11.330;2022-08-04T06:43:11;25.40;99.90
17815;DHT22;9031;50.974;11.330;2022-08-04T06:45:38;25.60;99.90
17815;DHT22;9031;50.974;11.330;2022-08-04T06:48:05;25.90;99.90
17815;DHT22;9031;50.974;11.330;2022-08-04T06:50:34;26.10;99.90
17815;DHT22;9031;50.974;11.330;2022-08-04T06:52:59;26.30;99.90
17815;DHT22;9031;50.974;11.330;2022-08-04T06:55:25;26.40;99.90
17815;DHT22;9031;50.974;11.330;2022-08-04T06:57:54;26.60;99.90
17815;DHT22;9031;50.974;11.330;2022-08-04T07:00:20;26.70;99.90
17815;DHT22;9031;50.974;11.330;2022-08-04T07:02:50;26.80;99.90
17815;DHT22;9031;50.974;11.330;2022-08-04T07:05:17;26.90;99.90
17815;DHT22;9031;50.974;11.330;2022-08-04T07:07:43;27.10;99.90
17815;DHT22;9031;50.974;11.330;2022-08-04T07:10:10;27.20;99.90
17815;DHT22;9031;50.974;11.330;2022-08-04T07:12:37;27.40;99.90
17815;DHT22;9031;50.974;11.330;2022-08-04T07:15:04;27.40;99.90
17815;DHT22;9031;50.974;11.330;2022-08-04T07:17:30;27.50;99.90
17815;DHT22;9031;50.974;11.330;2022-08-04T07:19:57;27.60;99.90
17815;DHT22;9031;50.974;11.330;2022-08-04T07:22:26;27.90;99.90
17815;DHT22;9031;50.974;11.330;2022-08-04T07:24:56;28.40;99.90
17815;DHT22;9031;50.974;11.330;2022-08-04T07:27:23;28.80;99.90
17815;DHT22;9031;50.974;11.330;2022-08-04T07:29:49;29.10;99.90
17815;DHT22;9031;50.974;11.330;2022-08-04T07:32:17;29.40;99.90
17815;DHT22;9031;50.974;11.330;2022-08-04T07:34:43;29.60;99.90
17815;DHT22;9031;50.974;11.330;2022-08-04T07:37:09;29.70;99.90
17815;DHT22;9031;50.974;11.330;2022-08-04T07:39:35;29.80;99.90
17815;DHT22;9031;50.974;11.330;2022-08-04T07:42:03;29.90;99.90
17815;DHT22;9031;50.974;11.330;2022-08-04T07:44:32;29.80;99.90
17815;DHT22;9031;50.974;11.330;2022-08-04T07:47:00;29.90;99.90
17815;DHT22;9031;50.974;11.330;2022-08-04T07:49:26;30.00;99.90
17815;DHT22;9031;50.974;11.330;2022-08-04T07:51:53;30.20;99.90
17815;DHT22;9031;50.974;11.330;2022-08-04T07:54:19;30.40;99.90
17815;DHT22;9031;50.974;11.330;2022-08-04T07:56:45;30.80;99.90
17815;DHT22;9031;50.974;11.330;2022-08-04T07:59:14;31.00;99.90
17815;DHT22;9031;50.974;11.330;2022-08-04T08:01:40;31.10;99.90
17815;DHT22;9031;50.974;11.330;2022-08-04T08:04:06;31.30;99.90
17815;DHT22;9031;50.974;11.330;2022-08-04T08:06:34;31.40;99.50
17815;DHT22;9031;50.974;11.330;2022-08-04T08:09:07;31.40;99.60
17815;DHT22;9031;50.974;11.330;2022-08-04T08:11:34;31.40;99.00
17815;DHT22;9031;50.974;11.330;2022-08-04T08:14:00;31.50;99.00
17815;DHT22;9031;50.974;11.330;2022-08-04T08:16:26;31.80;99.00
17815;DHT22;9031;50.974;11.330;2022-08-04T08:18:53;32.00;97.80
17815;DHT22;9031;50.974;11.330;2022-08-04T08:21:20;32.20;97.40
17815;DHT22;9031;50.974;11.330;2022-08-04T08:23:45;32.50;97.60
17815;DHT22;9031;50.974;11.330;2022-08-04T08:26:11;32.70;97.40
17815;DHT22;9031;50.974;11.330;2022-08-04T08:28:37;32.90;97.10
17815;DHT22;9031;50.974;11.330;2022-08-04T08:31:02;33.00;96.40
17815;DHT22;9031;50.974;11.330;2022-08-04T08:33:28;33.10;95.40
17815;DHT22;9031;50.974;11.330;2022-08-04T08:41:58;33.10;95.60
17815;DHT22;9031;50.974;11.330;2022-08-04T08:53:47;33.50;94.30
17815;DHT22;9031;50.974;11.330;2022-08-04T08:56:46;34.00;93.70
17815;DHT22;9031;50.974;11.330;2022-08-04T09:17:46;34.60;91.00
17815;DHT22;9031;50.974;11.330;2022-08-04T09:20:39;34.90;91.90
17815;DHT22;9031;50.974;11.330;2022-08-04T09:25:51;35.20;90.80
17815;DHT22;9031;50.974;11.330;2022-08-04T09:28:23;35.60;90.10
17815;DHT22;9031;50.974;11.330;2022-08-04T09:31:02;35.80;89.10
17815;DHT22;9031;50.974;11.330;2022-08-04T09:41:40;36.30;86.20
17815;DHT22;9031;50.974;11.330;2022-08-04T09:44:30;36.10;86.00
17815;DHT22;9031;50.974;11.330;2022-08-04T09:47:19;35.40;87.00
17815;DHT22;9031;50.974;11.330;2022-08-04T09:52:54;36.30;85.00
17815;DHT22;9031;50.974;11.330;2022-08-04T09:59:00;35.90;84.30
17815;DHT22;9031;50.974;11.330;2022-08-04T10:01:03;36.40;84.40
17815;DHT22;9031;50.974;11.330;2022-08-04T10:03:34;36.20;84.50
17815;DHT22;9031;50.974;11.330;2022-08-04T10:06:29;36.30;83.90
17815;DHT22;9031;50.974;11.330;2022-08-04T10:17:30;37.30;81.50
17815;DHT22;9031;50.974;11.330;2022-08-04T10:20:08;37.70;80.40
17815;DHT22;9031;50.974;11.330;2022-08-04T10:22:38;37.80;80.50
17815;DHT22;9031;50.974;11.330;2022-08-04T10:25:16;36.80;80.80
17815;DHT22;9031;50.974;11.330;2022-08-04T10:27:51;36.50;80.80
17815;DHT22;9031;50.974;11.330;2022-08-04T10:30:19;36.10;82.00
17815;DHT22;9031;50.974;11.330;2022-08-04T10:33:03;35.90;82.50
17815;DHT22;9031;50.974;11.330;2022-08-04T10:39:06;37.60;80.00
17815;DHT22;9031;50.974;11.330;2022-08-04T10:41:38;38.00;79.30
17815;DHT22;9031;50.974;11.330;2022-08-04T10:47:03;38.30;77.70
17815;DHT22;9031;50.974;11.330;2022-08-04T10:49:44;37.90;80.30
17815;DHT22;9031;50.974;11.330;2022-08-04T10:52:19;37.40;77.90
17815;DHT22;9031;50.974;11.330;2022-08-04T10:55:06;36.70;79.20
17815;DHT22;9031;50.974;11.330;2022-08-04T10:57:47;36.20;80.40
17815;DHT22;9031;50.974;11.330;2022-08-04T11:00:14;35.60;80.90
17815;DHT22;9031;50.974;11.330;2022-08-04T11:07:59;35.90;81.30
17815;DHT22;9031;50.974;11.330;2022-08-04T11:10:29;37.40;79.80
17815;DHT22;9031;50.974;11.330;2022-08-04T11:13:00;38.90;77.90
17815;DHT22;9031;50.974;11.330;2022-08-04T11:15:35;39.60;75.60
17815;DHT22;9031;50.974;11.330;2022-08-04T11:18:07;39.90;74.50
17815;DHT22;9031;50.974;11.330;2022-08-04T11:20:49;40.50;73.50
17815;DHT22;9031;50.974;11.330;2022-08-04T11:23:17;39.30;74.20
17815;DHT22;9031;50.974;11.330;2022-08-04T11:28:45;38.00;76.10
17815;DHT22;9031;50.974;11.330;2022-08-04T11:31:20;36.90;77.10
17815;DHT22;9031;50.974;11.330;2022-08-04T11:39:17;35.10;80.80
17815;DHT22;9031;50.974;11.330;2022-08-04T11:42:00;35.20;80.40
17815;DHT22;9031;50.974;11.330;2022-08-04T11:44:59;35.20;79.10
17815;DHT22;9031;50.974;11.330;2022-08-04T11:47:38;35.10;80.50
17815;DHT22;9031;50.974;11.330;2022-08-04T11:50:26;35.70;81.20
17815;DHT22;9031;50.974;11.330;2022-08-04T11:52:54;37.20;78.70
17815;DHT22;9031;50.974;11.330;2022-08-04T11:55:21;39.40;75.60
17815;DHT22;9031;50.974;11.330;2022-08-04T11:57:50;40.80;72.90
17815;DHT22;9031;50.974;11.330;2022-08-04T12:00:17;40.00;72.20
17815;DHT22;9031;50.974;11.330;2022-08-04T12:05:46;38.90;73.90
17815;DHT22;9031;50.974;11.330;2022-08-04T12:08:32;39.80;73.10
17815;DHT22;9031;50.974;11.330;2022-08-04T12:11:15;41.20;70.50
17815;DHT22;9031;50.974;11.330;2022-08-04T12:19:15;42.70;67.50
17815;DHT22;9031;50.974;11.330;2022-08-04T12:21:47;42.40;66.90
17815;DHT22;9031;50.974;11.330;2022-08-04T12:24:18;42.70;66.20
17815;DHT22;9031;50.974;11.330;2022-08-04T12:26:51;42.40;67.20
17815;DHT22;9031;50.974;11.330;2022-08-04T12:29:17;42.10;66.90
17815;DHT22;9031;50.974;11.330;2022-08-04T12:31:47;41.70;66.50
17815;DHT22;9031;50.974;11.330;2022-08-04T12:34:40;41.40;67.30
17815;DHT22;9031;50.974;11.330;2022-08-04T12:39:47;42.80;65.80
17815;DHT22;9031;50.974;11.330;2022-08-04T12:42:33;44.00;65.20
17815;DHT22;9031;50.974;11.330;2022-08-04T12:45:07;44.70;63.50
17815;DHT22;9031;50.974;11.330;2022-08-04T12:47:34;44.10;63.30
17815;DHT22;9031;50.974;11.330;2022-08-04T12:50:01;44.30;63.10
17815;DHT22;9031;50.974;11.330;2022-08-04T12:52:46;43.40;63.70
17815;DHT22;9031;50.974;11.330;2022-08-04T12:55:12;43.10;64.70
17815;DHT22;9031;50.974;11.330;2022-08-04T12:57:40;44.00;63.70
17815;DHT22;9031;50.974;11.330;2022-08-04T13:00:07;43.60;63.30
17815;DHT22;9031;50.974;11.330;2022-08-04T13:02:38;43.70;62.50
17815;DHT22;9031;50.974;11.330;2022-08-04T13:05:07;43.40;63.30
17815;DHT22;9031;50.974;11.330;2022-08-04T13:07:42;43.20;63.00
17815;DHT22;9031;50.974;11.330;2022-08-04T13:10:14;43.80;63.00
17815;DHT22;9031;50.974;11.330;2022-08-04T13:12:43;43.80;61.70
17815;DHT22;9031;50.974;11.330;2022-08-04T13:15:19;42.50;63.10
17815;DHT22;9031;50.974;11.330;2022-08-04T13:17:59;42.70;63.30
17815;DHT22;9031;50.974;11.330;2022-08-04T13:20:28;43.10;63.10
17815;DHT22;9031;50.974;11.330;2022-08-04T13:23:08;43.80;62.90
17815;DHT22;9031;50.974;11.330;2022-08-04T13:25:39;44.70;61.80
17815;DHT22;9031;50.974;11.330;2022-08-04T13:28:12;44.00;61.70
17815;DHT22;9031;50.974;11.330;2022-08-04T13:30:38;43.20;62.70
17815;DHT22;9031;50.974;11.330;2022-08-04T13:33:04;43.00;62.60
17815;DHT22;9031;50.974;11.330;2022-08-04T13:35:31;43.60;61.40
17815;DHT22;9031;50.974;11.330;2022-08-04T13:37:57;43.90;60.50
17815;DHT22;9031;50.974;11.330;2022-08-04T13:40:25;42.70;61.80
17815;DHT22;9031;50.974;11.330;2022-08-04T13:42:52;41.50;62.90
17815;DHT22;9031;50.974;11.330;2022-08-04T13:45:21;40.30;64.70
17815;DHT22;9031;50.974;11.330;2022-08-04T13:47:48;39.10;67.20
17815;DHT22;9031;50.974;11.330;2022-08-04T13:50:21;39.20;66.90
17815;DHT22;9031;50.974;11.330;2022-08-04T13:52:59;39.10;67.10
17815;DHT22;9031;50.974;11.330;2022-08-04T13:58:01;37.90;70.00
17815;DHT22;9031;50.974;11.330;2022-08-04T14:00:53;38.00;69.40
17815;DHT22;9031;50.974;11.330;2022-08-04T14:03:37;39.00;67.40
17815;DHT22;9031;50.974;11.330;2022-08-04T14:06:24;40.20;66.10
17815;DHT22;9031;50.974;11.330;2022-08-04T14:08:55;41.60;65.00
17815;DHT22;9031;50.974;11.330;2022-08-04T14:11:34;42.40;63.30
17815;DHT22;9031;50.974;11.330;2022-08-04T14:14:13;43.20;63.60
17815;DHT22;9031;50.974;11.330;2022-08-04T14:17:04;43.50;62.70
17815;DHT22;9031;50.974;11.330;2022-08-04T14:24:55;44.40;59.70
17815;DHT22;9031;50.974;11.330;2022-08-04T14:27:21;44.90;60.90
17815;DHT22;9031;50.974;11.330;2022-08-04T14:29:47;44.70;59.10
17815;DHT22;9031;50.974;11.330;2022-08-04T14:32:13;46.00;59.00
17815;DHT22;9031;50.974;11.330;2022-08-04T14:34:40;46.40;58.70
17815;DHT22;9031;50.974;11.330;2022-08-04T14:37:10;46.10;58.80
17815;DHT22;9031;50.974;11.330;2022-08-04T14:39:43;45.60;58.50
17815;DHT22;9031;50.974;11.330;2022-08-04T14:42:09;44.90;59.00
17815;DHT22;9031;50.974;11.330;2022-08-04T14:44:54;45.70;58.70
17815;DHT22;9031;50.974;11.330;2022-08-04T14:47:40;44.30;59.30
17815;DHT22;9031;50.974;11.330;2022-08-04T14:50:07;43.50;59.40
17815;DHT22;9031;50.974;11.330;2022-08-04T14:52:33;42.50;60.90
17815;DHT22;9031;50.974;11.330;2022-08-04T14:57:42;43.60;60.90
17815;DHT22;9031;50.974;11.330;2022-08-04T15:00:08;43.70;59.20
17815;DHT22;9031;50.974;11.330;2022-08-04T15:02:33;43.60;61.20
17815;DHT22;9031;50.974;11.330;2022-08-04T15:05:01;43.70;60.00
17815;DHT22;9031;50.974;11.330;2022-08-04T15:07:28;43.20;61.10
17815;DHT22;9031;50.974;11.330;2022-08-04T15:09:54;43.40;60.00
17815;DHT22;9031;50.974;11.330;2022-08-04T15:12:20;44.00;59.00
17815;DHT22;9031;50.974;11.330;2022-08-04T15:14:46;44.90;58.20
17815;DHT22;9031;50.974;11.330;2022-08-04T15:17:12;44.40;59.10
17815;DHT22;9031;50.974;11.330;2022-08-04T15:19:38;44.00;59.80
17815;DHT22;9031;50.974;11.330;2022-08-04T15:22:04;44.10;59.20
17815;DHT22;9031;50.974;11.330;2022-08-04T15:24:31;43.80;59.30
17815;DHT22;9031;50.974;11.330;2022-08-04T15:26:57;43.80;59.70
17815;DHT22;9031;50.974;11.330;2022-08-04T15:29:42;44.60;59.30
17815;DHT22;9031;50.974;11.330;2022-08-04T15:32:13;45.10;58.90
17815;DHT22;9031;50.974;11.330;2022-08-04T15:34:47;45.80;58.70
17815;DHT22;9031;50.974;11.330;2022-08-04T15:37:17;46.20;58.30
17815;DHT22;9031;50.974;11.330;2022-08-04T15:39:54;46.60;57.20
17815;DHT22;9031;50.974;11.330;2022-08-04T15:42:34;46.40;57.40
17815;DHT22;9031;50.974;11.330;2022-08-04T15:45:22;45.80;57.70
17815;DHT22;9031;50.974;11.330;2022-08-04T15:53:23;43.00;59.60
17815;DHT22;9031;50.974;11.330;2022-08-04T15:55:49;41.90;62.00
17815;DHT22;9031;50.974;11.330;2022-08-04T15:58:16;41.60;61.60
17815;DHT22;9031;50.974;11.330;2022-08-04T16:21:59;45.30;58.20
17815;DHT22;9031;50.974;11.330;2022-08-04T16:24:30;44.40;58.50
17815;DHT22;9031;50.974;11.330;2022-08-04T16:27:01;43.70;59.10
17815;DHT22;9031;50.974;11.330;2022-08-04T16:29:36;43.10;59.30
17815;DHT22;9031;50.974;11.330;2022-08-04T16:37:18;41.90;60.40
17815;DHT22;9031;50.974;11.330;2022-08-04T16:39:45;42.10;60.80
17815;DHT22;9031;50.974;11.330;2022-08-04T16:47:59;42.30;60.60
17815;DHT22;9031;50.974;11.330;2022-08-04T16:50:25;43.10;59.80
17815;DHT22;9031;50.974;11.330;2022-08-04T16:52:53;42.70;60.10
17815;DHT22;9031;50.974;11.330;2022-08-04T16:55:20;42.10;61.00
17815;DHT22;9031;50.974;11.330;2022-08-04T16:57:47;42.00;60.90
17815;DHT22;9031;50.974;11.330;2022-08-04T17:00:13;40.70;62.30
17815;DHT22;9031;50.974;11.330;2022-08-04T17:02:39;39.40;64.00
17815;DHT22;9031;50.974;11.330;2022-08-04T17:05:19;38.50;65.70
17815;DHT22;9031;50.974;11.330;2022-08-04T17:07:53;37.60;67.80
17815;DHT22;9031;50.974;11.330;2022-08-04T17:10:36;37.10;68.70
17815;DHT22;9031;50.974;11.330;2022-08-04T17:13:33;36.70;69.20
17815;DHT22;9031;50.974;11.330;2022-08-04T17:16:03;36.40;70.10
17815;DHT22;9031;50.974;11.330;2022-08-04T17:18:35;36.20;70.30
17815;DHT22;9031;50.974;11.330;2022-08-04T17:21:08;36.00;71.00
17815;DHT22;9031;50.974;11.330;2022-08-04T17:23:38;35.80;72.20
17815;DHT22;9031;50.974;11.330;2022-08-04T17:26:12;35.70;71.70
17815;DHT22;9031;50.974;11.330;2022-08-04T17:28:40;35.50;73.50
17815;DHT22;9031;50.974;11.330;2022-08-04T17:31:08;35.30;74.50
17815;DHT22;9031;50.974;11.330;2022-08-04T17:33:35;35.20;73.20
17815;DHT22;9031;50.974;11.330;2022-08-04T17:36:02;35.00;75.60
17815;DHT22;9031;50.974;11.330;2022-08-04T17:38:30;34.90;75.90
17815;DHT22;9031;50.974;11.330;2022-08-04T17:40:58;34.70;77.50
17815;DHT22;9031;50.974;11.330;2022-08-04T17:43:44;34.50;78.20
17815;DHT22;9031;50.974;11.330;2022-08-04T17:46:35;34.30;79.10
17815;DHT22;9031;50.974;11.330;2022-08-04T17:49:20;34.10;80.30
17815;DHT22;9031;50.974;11.330;2022-08-04T17:51:49;33.90;81.60
17815;DHT22;9031;50.974;11.330;2022-08-04T17:54:20;33.70;82.80
17815;DHT22;9031;50.974;11.330;2022-08-04T17:56:48;33.50;83.50
17815;DHT22;9031;50.974;11.330;2022-08-04T17:59:20;33.40;83.90
17815;DHT22;9031;50.974;11.330;2022-08-04T18:09:37;32.80;85.80
17815;DHT22;9031;50.974;11.330;2022-08-04T18:12:07;32.60;86.40
17815;DHT22;9031;50.974;11.330;2022-08-04T18:14:42;32.40;86.00
17815;DHT22;9031;50.974;11.330;2022-08-04T18:17:09;32.40;86.70
17815;DHT22;9031;50.974;11.330;2022-08-04T18:19:35;32.30;87.40
17815;DHT22;9031;50.974;11.330;2022-08-04T18:22:02;32.20;87.80
17815;DHT22;9031;50.974;11.330;2022-08-04T18:24:30;32.00;88.30
17815;DHT22;9031;50.974;11.330;2022-08-04T18:26:56;31.90;88.30
17815;DHT22;9031;50.974;11.330;2022-08-04T18:29:21;31.70;88.80
17815;DHT22;9031;50.974;11.330;2022-08-04T18:31:47;31.60;89.50
17815;DHT22;9031;50.974;11.330;2022-08-04T18:34:12;31.40;90.10
17815;DHT22;9031;50.974;11.330;2022-08-04T18:36:38;31.30;89.50
17815;DHT22;9031;50.974;11.330;2022-08-04T18:39:05;31.20;88.20
17815;DHT22;9031;50.974;11.330;2022-08-04T18:41:31;31.10;88.70
17815;DHT22;9031;50.974;11.330;2022-08-04T18:43:57;31.00;88.80
17815;DHT22;9031;50.974;11.330;2022-08-04T18:46:23;30.90;89.10
17815;DHT22;9031;50.974;11.330;2022-08-04T18:48:49;30.80;89.80
17815;DHT22;9031;50.974;11.330;2022-08-04T18:51:14;30.70;90.60
17815;DHT22;9031;50.974;11.330;2022-08-04T18:53:40;30.60;90.40
17815;DHT22;9031;50.974;11.330;2022-08-04T18:56:06;30.60;90.70
17815;DHT22;9031;50.974;11.330;2022-08-04T18:58:32;30.40;90.90
17815;DHT22;9031;50.974;11.330;2022-08-04T19:00:57;30.20;91.20
17815;DHT22;9031;50.974;11.330;2022-08-04T19:03:23;30.10;91.10
17815;DHT22;9031;50.974;11.330;2022-08-04T19:05:48;30.00;91.50
17815;DHT22;9031;50.974;11.330;2022-08-04T19:08:14;29.90;91.50
17815;DHT22;9031;50.974;11.330;2022-08-04T19:10:40;29.80;91.50
17815;DHT22;9031;50.974;11.330;2022-08-04T19:13:05;29.70;91.60
17815;DHT22;9031;50.974;11.330;2022-08-04T19:15:31;29.70;92.00
17815;DHT22;9031;50.974;11.330;2022-08-04T19:17:56;29.50;92.30
17815;DHT22;9031;50.974;11.330;2022-08-04T19:20:22;29.40;92.40
17815;DHT22;9031;50.974;11.330;2022-08-04T19:22:48;29.30;92.60
17815;DHT22;9031;50.974;11.330;2022-08-04T19:25:13;29.20;92.70
17815;DHT22;9031;50.974;11.330;2022-08-04T19:27:39;29.10;93.00
17815;DHT22;9031;50.974;11.330;2022-08-04T19:30:05;29.00;93.20
17815;DHT22;9031;50.974;11.330;2022-08-04T19:32:30;28.90;93.40
17815;DHT22;9031;50.974;11.330;2022-08-04T19:34:56;28.90;93.50
17815;DHT22;9031;50.974;11.330;2022-08-04T19:37:22;28.80;93.70
17815;DHT22;9031;50.974;11.330;2022-08-04T19:39:48;28.70;94.20
17815;DHT22;9031;50.974;11.330;2022-08-04T19:42:15;28.50;94.50
17815;DHT22;9031;50.974;11.330;2022-08-04T19:44:40;28.40;94.50
17815;DHT22;9031;50.974;11.330;2022-08-04T19:47:06;28.30;94.60
17815;DHT22;9031;50.974;11.330;2022-08-04T19:49:32;28.20;94.70
17815;DHT22;9031;50.974;11.330;2022-08-04T19:51:57;28.10;94.90
17815;DHT22;9031;50.974;11.330;2022-08-04T19:54:23;28.10;95.20
17815;DHT22;9031;50.974;11.330;2022-08-04T19:56:48;28.00;95.40
17815;DHT22;9031;50.974;11.330;2022-08-04T19:59:14;28.10;95.50
17815;DHT22;9031;50.974;11.330;2022-08-04T20:01:39;28.00;95.90
17815;DHT22;9031;50.974;11.330;2022-08-04T20:04:05;27.90;96.20
17815;DHT22;9031;50.974;11.330;2022-08-04T20:06:30;27.70;96.60